sensor_id;sensor_type;location;lat;lon;timestamp;P1;durP1;ratioP1;P2;durP2;ratioP2
58697;SDS011;44475;53.206;-6.106;2023-09-12T00:00:03;5.35;;;2.55;;
58697;SDS011;44475;53.206;-6.106;2023-09-12T00:02:37;4.78;;;2.40;;
58697;SDS011;44475;53.206;-6.106;2023-09-12T00:05:03;4.65;;;2.30;;
58697;SDS011;44475;53.206;-6.106;2023-09-12T00:07:30;4.88;;;2.50;;
58697;SDS011;44475;53.206;-6.106;2023-09-12T00:09:56;5.50;;;2.53;;
58697;SDS011;44475;53.206;-6.106;2023-09-12T00:12:23;8.77;;;2.45;;
58697;SDS011;44475;53.206;-6.106;2023-09-12T00:14:53;4.95;;;2.60;;
58697;SDS011;44475;53.206;-6.106;2023-09-12T00:17:21;5.70;;;2.60;;
58697;SDS011;44475;53.206;-6.106;2023-09-12T00:19:47;4.93;;;2.30;;
58697;SDS011;44475;53.206;-6.106;2023-09-12T00:22:13;4.35;;;2.22;;
58697;SDS011;44475;53.206;-6.106;2023-09-12T00:24:39;4.63;;;2.40;;
58697;SDS011;44475;53.206;-6.106;2023-09-12T00:27:06;4.88;;;2.40;;
58697;SDS011;44475;53.206;-6.106;2023-09-12T00:29:32;4.38;;;2.30;;
58697;SDS011;44475;53.206;-6.106;2023-09-12T00:31:59;5.65;;;2.28;;
58697;SDS011;44475;53.206;-6.106;2023-09-12T00:34:25;4.93;;;2.40;;
58697;SDS011;44475;53.206;-6.106;2023-09-12T00:36:51;5.07;;;2.50;;
58697;SDS011;44475;53.206;-6.106;2023-09-12T00:39:17;5.18;;;2.13;;
58697;SDS011;44475;53.206;-6.106;2023-09-12T00:41:44;6.47;;;2.28;;
58697;SDS011;44475;53.206;-6.106;2023-09-12T00:44:10;6.43;;;2.30;;
58697;SDS011;44475;53.206;-6.106;2023-09-12T00:46:37;4.40;;;2.20;;
58697;SDS011;44475;53.206;-6.106;2023-09-12T00:49:05;5.75;;;2.30;;
58697;SDS011;44475;53.206;-6.106;2023-09-12T00:51:34;3.95;;;2.17;;
58697;SDS011;44475;53.206;-6.106;2023-09-12T00:54:02;4.30;;;2.30;;
58697;SDS011;44475;53.206;-6.106;2023-09-12T00:56:29;3.63;;;2.05;;
58697;SDS011;44475;53.206;-6.106;2023-09-12T00:58:56;3.35;;;2.00;;
58697;SDS011;44475;53.206;-6.106;2023-09-12T01:01:23;4.65;;;2.17;;
58697;SDS011;44475;53.206;-6.106;2023-09-12T01:03:49;5.05;;;2.38;;
58697;SDS011;44475;53.206;-6.106;2023-09-12T01:06:17;4.30;;;2.13;;
58697;SDS011;44475;53.206;-6.106;2023-09-12T01:08:47;4.32;;;2.00;;
58697;SDS011;44475;53.206;-6.106;2023-09-12T01:11:13;4.63;;;2.10;;
58697;SDS011;44475;53.206;-6.106;2023-09-12T01:13:41;3.60;;;2.17;;
58697;SDS011;44475;53.206;-6.106;2023-09-12T01:16:07;4.40;;;2.10;;
58697;SDS011;44475;53.206;-6.106;2023-09-12T01:18:34;4.10;;;1.92;;
58697;SDS011;44475;53.206;-6.106;2023-09-12T01:26:49;3.80;;;2.10;;
58697;SDS011;44475;53.206;-6.106;2023-09-12T01:29:32;3.15;;;1.90;;
58697;SDS011;44475;53.206;-6.106;2023-09-12T01:32:00;3.10;;;1.90;;
58697;SDS011;44475;53.206;-6.106;2023-09-12T01:34:28;3.35;;;1.73;;
58697;SDS011;44475;53.206;-6.106;2023-09-12T01:36:54;3.63;;;2.00;;
58697;SDS011;44475;53.206;-6.106;2023-09-12T01:39:21;3.78;;;1.85;;
58697;SDS011;44475;53.206;-6.106;2023-09-12T01:41:47;3.63;;;2.00;;
58697;SDS011;44475;53.206;-6.106;2023-09-12T01:44:17;2.92;;;1.70;;
58697;SDS011;44475;53.206;-6.106;2023-09-12T01:46:48;4.47;;;1.90;;
58697;SDS011;44475;53.206;-6.106;2023-09-12T01:49:15;4.25;;;2.00;;
58697;SDS011;44475;53.206;-6.106;2023-09-12T01:51:44;4.38;;;1.80;;
58697;SDS011;44475;53.206;-6.106;2023-09-12T01:54:11;3.50;;;1.90;;
58697;SDS011;44475;53.206;-6.106;2023-09-12T01:56:39;4.60;;;2.00;;
58697;SDS011;44475;53.206;-6.106;2023-09-12T01:59:06;4.32;;;1.90;;
58697;SDS011;44475;53.206;-6.106;2023-09-12T02:01:32;3.63;;;1.80;;
58697;SDS011;44475;53.206;-6.106;2023-09-12T02:03:59;3.95;;;1.90;;
58697;SDS011;44475;53.206;-6.106;2023-09-12T02:06:25;4.30;;;2.13;;
58697;SDS011;44475;53.206;-6.106;2023-09-12T02:08:51;2.47;;;1.70;;
58697;SDS011;44475;53.206;-6.106;2023-09-12T02:11:18;4.10;;;1.80;;
58697;SDS011;44475;53.206;-6.106;2023-09-12T02:13:44;2.97;;;1.73;;
58697;SDS011;44475;53.206;-6.106;2023-09-12T02:16:11;3.45;;;1.83;;
58697;SDS011;44475;53.206;-6.106;2023-09-12T02:18:38;3.17;;;1.80;;
58697;SDS011;44475;53.206;-6.106;2023-09-12T02:21:04;3.13;;;1.70;;
58697;SDS011;44475;53.206;-6.106;2023-09-12T02:23:30;3.17;;;1.80;;
58697;SDS011;44475;53.206;-6.106;2023-09-12T02:25:56;3.63;;;1.88;;
58697;SDS011;44475;53.206;-6.106;2023-09-12T02:28:23;2.47;;;1.70;;
58697;SDS011;44475;53.206;-6.106;2023-09-12T02:30:49;2.08;;;1.60;;
58697;SDS011;44475;53.206;-6.106;2023-09-12T02:33:16;3.58;;;1.70;;
58697;SDS011;44475;53.206;-6.106;2023-09-12T02:35:42;3.55;;;1.80;;
58697;SDS011;44475;53.206;-6.106;2023-09-12T02:38:09;2.55;;;1.48;;
58697;SDS011;44475;53.206;-6.106;2023-09-12T02:40:35;2.90;;;1.60;;
58697;SDS011;44475;53.206;-6.106;2023-09-12T02:43:01;1.85;;;1.40;;
58697;SDS011;44475;53.206;-6.106;2023-09-12T02:45:28;2.72;;;1.70;;
58697;SDS011;44475;53.206;-6.106;2023-09-12T02:47:55;2.25;;;1.60;;
58697;SDS011;44475;53.206;-6.106;2023-09-12T02:50:21;3.33;;;1.80;;
58697;SDS011;44475;53.206;-6.106;2023-09-12T02:52:47;2.15;;;1.48;;
58697;SDS011;44475;53.206;-6.106;2023-09-12T02:55:14;2.38;;;1.60;;
58697;SDS011;44475;53.206;-6.106;2023-09-12T02:57:40;2.50;;;1.63;;
58697;SDS011;44475;53.206;-6.106;2023-09-12T03:00:06;2.38;;;1.60;;
58697;SDS011;44475;53.206;-6.106;2023-09-12T03:02:34;2.95;;;1.50;;
58697;SDS011;44475;53.206;-6.106;2023-09-12T03:05:00;2.70;;;1.60;;
58697;SDS011;44475;53.206;-6.106;2023-09-12T03:07:27;2.35;;;1.55;;
58697;SDS011;44475;53.206;-6.106;2023-09-12T03:09:54;2.03;;;1.50;;
58697;SDS011;44475;53.206;-6.106;2023-09-12T03:12:21;2.10;;;1.50;;
58697;SDS011;44475;53.206;-6.106;2023-09-12T03:14:47;1.70;;;1.40;;
58697;SDS011;44475;53.206;-6.106;2023-09-12T03:17:13;2.60;;;1.60;;
58697;SDS011;44475;53.206;-6.106;2023-09-12T03:19:39;2.72;;;1.58;;
58697;SDS011;44475;53.206;-6.106;2023-09-12T03:22:06;3.45;;;1.70;;
58697;SDS011;44475;53.206;-6.106;2023-09-12T03:24:32;2.20;;;1.50;;
58697;SDS011;44475;53.206;-6.106;2023-09-12T03:26:58;2.05;;;1.40;;
58697;SDS011;44475;53.206;-6.106;2023-09-12T03:29:25;2.72;;;1.50;;
58697;SDS011;44475;53.206;-6.106;2023-09-12T03:31:51;1.75;;;1.33;;
58697;SDS011;44475;53.206;-6.106;2023-09-12T03:34:17;3.00;;;1.50;;
58697;SDS011;44475;53.206;-6.106;2023-09-12T03:36:44;2.53;;;1.70;;
58697;SDS011;44475;53.206;-6.106;2023-09-12T03:39:10;2.15;;;1.40;;
58697;SDS011;44475;53.206;-6.106;2023-09-12T03:41:38;2.00;;;1.40;;
58697;SDS011;44475;53.206;-6.106;2023-09-12T03:44:05;2.50;;;1.55;;
58697;SDS011;44475;53.206;-6.106;2023-09-12T03:46:31;1.95;;;1.42;;
58697;SDS011;44475;53.206;-6.106;2023-09-12T03:48:58;2.35;;;1.50;;
58697;SDS011;44475;53.206;-6.106;2023-09-12T03:51:24;2.05;;;1.40;;
58697;SDS011;44475;53.206;-6.106;2023-09-12T03:53:50;1.40;;;1.30;;
58697;SDS011;44475;53.206;-6.106;2023-09-12T03:56:17;1.90;;;1.40;;
58697;SDS011;44475;53.206;-6.106;2023-09-12T03:58:45;1.73;;;1.35;;
58697;SDS011;44475;53.206;-6.106;2023-09-12T04:01:12;2.67;;;1.48;;
58697;SDS011;44475;53.206;-6.106;2023-09-12T04:03:38;2.60;;;1.60;;
58697;SDS011;44475;53.206;-6.106;2023-09-12T04:06:05;1.92;;;1.40;;
58697;SDS011;44475;53.206;-6.106;2023-09-12T04:08:31;2.17;;;1.35;;
58697;SDS011;44475;53.206;-6.106;2023-09-12T04:10:57;1.83;;;1.35;;
58697;SDS011;44475;53.206;-6.106;2023-09-12T04:13:24;1.88;;;1.30;;
58697;SDS011;44475;53.206;-6.106;2023-09-12T04:15:50;2.10;;;1.30;;
58697;SDS011;44475;53.206;-6.106;2023-09-12T04:18:16;2.20;;;1.40;;
58697;SDS011;44475;53.206;-6.106;2023-09-12T04:20:43;1.98;;;1.42;;
58697;SDS011;44475;53.206;-6.106;2023-09-12T04:23:09;1.40;;;1.30;;
58697;SDS011;44475;53.206;-6.106;2023-09-12T04:25:35;1.75;;;1.30;;
58697;SDS011;44475;53.206;-6.106;2023-09-12T04:28:02;1.80;;;1.40;;
58697;SDS011;44475;53.206;-6.106;2023-09-12T04:30:29;2.10;;;1.40;;
58697;SDS011;44475;53.206;-6.106;2023-09-12T04:32:55;1.77;;;1.30;;
58697;SDS011;44475;53.206;-6.106;2023-09-12T04:35:22;1.42;;;1.30;;
58697;SDS011;44475;53.206;-6.106;2023-09-12T04:37:50;3.20;;;1.30;;
58697;SDS011;44475;53.206;-6.106;2023-09-12T04:40:17;1.45;;;1.20;;
58697;SDS011;44475;53.206;-6.106;2023-09-12T04:42:43;2.25;;;1.38;;
58697;SDS011;44475;53.206;-6.106;2023-09-12T04:45:09;1.33;;;1.23;;
58697;SDS011;44475;53.206;-6.106;2023-09-12T04:47:36;2.70;;;1.38;;
58697;SDS011;44475;53.206;-6.106;2023-09-12T04:50:02;1.58;;;1.23;;
58697;SDS011;44475;53.206;-6.106;2023-09-12T04:52:28;2.08;;;1.30;;
58697;SDS011;44475;53.206;-6.106;2023-09-12T04:54:55;2.30;;;1.40;;
58697;SDS011;44475;53.206;-6.106;2023-09-12T04:57:21;2.03;;;1.30;;
58697;SDS011;44475;53.206;-6.106;2023-09-12T04:59:47;1.27;;;1.10;;
58697;SDS011;44475;53.206;-6.106;2023-09-12T05:02:14;1.85;;;1.30;;
58697;SDS011;44475;53.206;-6.106;2023-09-12T05:04:40;1.38;;;1.10;;
58697;SDS011;44475;53.206;-6.106;2023-09-12T05:07:07;2.30;;;1.50;;
58697;SDS011;44475;53.206;-6.106;2023-09-12T05:09:33;2.25;;;1.30;;
58697;SDS011;44475;53.206;-6.106;2023-09-12T05:12:00;2.30;;;1.50;;
58697;SDS011;44475;53.206;-6.106;2023-09-12T05:14:26;1.55;;;1.38;;
58697;SDS011;44475;53.206;-6.106;2023-09-12T05:16:52;1.42;;;1.20;;
58697;SDS011;44475;53.206;-6.106;2023-09-12T05:19:19;1.40;;;1.30;;
58697;SDS011;44475;53.206;-6.106;2023-09-12T05:21:45;1.63;;;1.20;;
58697;SDS011;44475;53.206;-6.106;2023-09-12T05:24:11;1.63;;;1.30;;
58697;SDS011;44475;53.206;-6.106;2023-09-12T05:26:37;1.73;;;1.30;;
58697;SDS011;44475;53.206;-6.106;2023-09-12T05:29:04;1.58;;;1.38;;
58697;SDS011;44475;53.206;-6.106;2023-09-12T05:31:30;2.08;;;1.35;;
58697;SDS011;44475;53.206;-6.106;2023-09-12T05:33:57;1.90;;;1.35;;
58697;SDS011;44475;53.206;-6.106;2023-09-12T05:36:23;2.05;;;1.33;;
58697;SDS011;44475;53.206;-6.106;2023-09-12T05:38:50;2.20;;;1.38;;
58697;SDS011;44475;53.206;-6.106;2023-09-12T05:41:16;1.75;;;1.30;;
58697;SDS011;44475;53.206;-6.106;2023-09-12T05:43:42;1.67;;;1.20;;
58697;SDS011;44475;53.206;-6.106;2023-09-12T05:46:09;1.63;;;1.30;;
58697;SDS011;44475;53.206;-6.106;2023-09-12T05:48:35;1.55;;;1.30;;
58697;SDS011;44475;53.206;-6.106;2023-09-12T05:51:01;1.95;;;1.50;;
58697;SDS011;44475;53.206;-6.106;2023-09-12T05:53:28;2.28;;;1.40;;
58697;SDS011;44475;53.206;-6.106;2023-09-12T05:55:56;1.80;;;1.50;;
58697;SDS011;44475;53.206;-6.106;2023-09-12T05:58:22;2.20;;;1.35;;
58697;SDS011;44475;53.206;-6.106;2023-09-12T06:00:48;2.67;;;1.30;;
58697;SDS011;44475;53.206;-6.106;2023-09-12T06:03:15;1.45;;;1.30;;
58697;SDS011;44475;53.206;-6.106;2023-09-12T06:05:41;1.55;;;1.20;;
58697;SDS011;44475;53.206;-6.106;2023-09-12T06:08:07;1.38;;;1.27;;
58697;SDS011;44475;53.206;-6.106;2023-09-12T06:10:34;2.78;;;1.52;;
58697;SDS011;44475;53.206;-6.106;2023-09-12T06:13:00;1.33;;;1.20;;
58697;SDS011;44475;53.206;-6.106;2023-09-12T06:15:26;1.70;;;1.30;;
58697;SDS011;44475;53.206;-6.106;2023-09-12T06:17:53;5.07;;;1.40;;
58697;SDS011;44475;53.206;-6.106;2023-09-12T06:20:20;2.15;;;1.23;;
58697;SDS011;44475;53.206;-6.106;2023-09-12T06:22:47;2.70;;;1.40;;
58697;SDS011;44475;53.206;-6.106;2023-09-12T06:25:14;1.95;;;1.30;;
58697;SDS011;44475;53.206;-6.106;2023-09-12T06:27:40;1.50;;;1.20;;
58697;SDS011;44475;53.206;-6.106;2023-09-12T06:30:07;4.25;;;1.48;;
58697;SDS011;44475;53.206;-6.106;2023-09-12T06:32:33;1.35;;;1.25;;
58697;SDS011;44475;53.206;-6.106;2023-09-12T06:35:00;5.80;;;1.92;;
58697;SDS011;44475;53.206;-6.106;2023-09-12T06:37:26;4.95;;;1.58;;
58697;SDS011;44475;53.206;-6.106;2023-09-12T06:39:52;2.63;;;1.38;;
58697;SDS011;44475;53.206;-6.106;2023-09-12T06:42:19;3.38;;;1.60;;
58697;SDS011;44475;53.206;-6.106;2023-09-12T06:44:45;4.82;;;1.60;;
58697;SDS011;44475;53.206;-6.106;2023-09-12T06:47:11;6.15;;;1.50;;
58697;SDS011;44475;53.206;-6.106;2023-09-12T06:49:38;2.63;;;1.23;;
58697;SDS011;44475;53.206;-6.106;2023-09-12T06:52:04;7.00;;;1.50;;
58697;SDS011;44475;53.206;-6.106;2023-09-12T06:54:32;2.28;;;1.20;;
58697;SDS011;44475;53.206;-6.106;2023-09-12T06:56:58;2.58;;;1.60;;
58697;SDS011;44475;53.206;-6.106;2023-09-12T06:59:25;3.08;;;1.30;;
58697;SDS011;44475;53.206;-6.106;2023-09-12T07:01:51;2.42;;;1.38;;
58697;SDS011;44475;53.206;-6.106;2023-09-12T07:04:17;2.78;;;1.33;;
58697;SDS011;44475;53.206;-6.106;2023-09-12T07:06:43;5.38;;;1.50;;
58697;SDS011;44475;53.206;-6.106;2023-09-12T07:09:10;2.38;;;1.70;;
58697;SDS011;44475;53.206;-6.106;2023-09-12T07:11:39;2.67;;;1.40;;
58697;SDS011;44475;53.206;-6.106;2023-09-12T07:14:06;3.67;;;1.50;;
58697;SDS011;44475;53.206;-6.106;2023-09-12T07:16:33;4.20;;;1.50;;
58697;SDS011;44475;53.206;-6.106;2023-09-12T07:19:00;3.38;;;1.42;;
58697;SDS011;44475;53.206;-6.106;2023-09-12T07:21:26;3.92;;;1.40;;
58697;SDS011;44475;53.206;-6.106;2023-09-12T07:23:53;2.95;;;1.40;;
58697;SDS011;44475;53.206;-6.106;2023-09-12T07:26:19;2.08;;;1.27;;
58697;SDS011;44475;53.206;-6.106;2023-09-12T07:28:45;2.35;;;1.30;;
58697;SDS011;44475;53.206;-6.106;2023-09-12T07:31:12;2.20;;;1.33;;
58697;SDS011;44475;53.206;-6.106;2023-09-12T07:33:39;1.85;;;1.20;;
58697;SDS011;44475;53.206;-6.106;2023-09-12T07:36:06;1.73;;;1.23;;
58697;SDS011;44475;53.206;-6.106;2023-09-12T07:38:32;3.42;;;1.30;;
58697;SDS011;44475;53.206;-6.106;2023-09-12T07:41:00;3.83;;;1.30;;
58697;SDS011;44475;53.206;-6.106;2023-09-12T07:43:28;1.75;;;1.15;;
58697;SDS011;44475;53.206;-6.106;2023-09-12T07:45:55;1.95;;;1.20;;
58697;SDS011;44475;53.206;-6.106;2023-09-12T07:48:22;3.58;;;1.38;;
58697;SDS011;44475;53.206;-6.106;2023-09-12T07:50:49;1.67;;;1.20;;
58697;SDS011;44475;53.206;-6.106;2023-09-12T07:53:16;2.20;;;1.48;;
58697;SDS011;44475;53.206;-6.106;2023-09-12T07:55:43;1.80;;;1.27;;
58697;SDS011;44475;53.206;-6.106;2023-09-12T07:58:14;2.15;;;1.45;;
58697;SDS011;44475;53.206;-6.106;2023-09-12T08:00:43;2.35;;;1.30;;
58697;SDS011;44475;53.206;-6.106;2023-09-12T08:03:09;2.22;;;1.20;;
58697;SDS011;44475;53.206;-6.106;2023-09-12T08:05:35;2.53;;;1.30;;
58697;SDS011;44475;53.206;-6.106;2023-09-12T08:08:03;2.88;;;1.33;;
58697;SDS011;44475;53.206;-6.106;2023-09-12T08:10:29;1.88;;;1.13;;
58697;SDS011;44475;53.206;-6.106;2023-09-12T08:12:56;1.88;;;1.20;;
58697;SDS011;44475;53.206;-6.106;2023-09-12T08:15:22;1.83;;;1.20;;
58697;SDS011;44475;53.206;-6.106;2023-09-12T08:17:49;3.75;;;1.40;;
58697;SDS011;44475;53.206;-6.106;2023-09-12T08:20:17;1.95;;;1.25;;
58697;SDS011;44475;53.206;-6.106;2023-09-12T08:22:44;1.65;;;1.40;;
58697;SDS011;44475;53.206;-6.106;2023-09-12T08:25:10;2.60;;;1.20;;
58697;SDS011;44475;53.206;-6.106;2023-09-12T08:27:38;1.55;;;1.20;;
58697;SDS011;44475;53.206;-6.106;2023-09-12T08:30:05;2.13;;;1.30;;
58697;SDS011;44475;53.206;-6.106;2023-09-12T08:32:31;2.38;;;1.30;;
58697;SDS011;44475;53.206;-6.106;2023-09-12T08:34:58;1.63;;;1.30;;
58697;SDS011;44475;53.206;-6.106;2023-09-12T08:37:24;2.70;;;1.30;;
58697;SDS011;44475;53.206;-6.106;2023-09-12T08:39:50;2.22;;;1.50;;
58697;SDS011;44475;53.206;-6.106;2023-09-12T08:42:21;2.17;;;1.20;;
58697;SDS011;44475;53.206;-6.106;2023-09-12T08:44:48;1.42;;;1.15;;
58697;SDS011;44475;53.206;-6.106;2023-09-12T08:47:15;2.30;;;1.30;;
58697;SDS011;44475;53.206;-6.106;2023-09-12T08:49:43;2.20;;;1.38;;
58697;SDS011;44475;53.206;-6.106;2023-09-12T08:52:09;2.28;;;1.30;;
58697;SDS011;44475;53.206;-6.106;2023-09-12T08:54:36;1.67;;;1.20;;
58697;SDS011;44475;53.206;-6.106;2023-09-12T08:57:02;2.13;;;1.30;;
58697;SDS011;44475;53.206;-6.106;2023-09-12T08:59:31;2.72;;;1.30;;
58697;SDS011;44475;53.206;-6.106;2023-09-12T09:01:59;1.40;;;1.30;;
58697;SDS011;44475;53.206;-6.106;2023-09-12T09:04:31;1.75;;;1.10;;
58697;SDS011;44475;53.206;-6.106;2023-09-12T09:06:59;2.72;;;1.50;;
58697;SDS011;44475;53.206;-6.106;2023-09-12T09:09:28;2.78;;;1.30;;
58697;SDS011;44475;53.206;-6.106;2023-09-12T09:11:55;1.23;;;1.13;;
58697;SDS011;44475;53.206;-6.106;2023-09-12T09:14:21;1.85;;;1.20;;
58697;SDS011;44475;53.206;-6.106;2023-09-12T09:16:48;2.53;;;1.30;;
58697;SDS011;44475;53.206;-6.106;2023-09-12T09:19:15;2.20;;;1.30;;
58697;SDS011;44475;53.206;-6.106;2023-09-12T09:21:43;1.83;;;1.30;;
58697;SDS011;44475;53.206;-6.106;2023-09-12T09:24:10;2.05;;;1.25;;
58697;SDS011;44475;53.206;-6.106;2023-09-12T09:26:41;2.97;;;1.30;;
58697;SDS011;44475;53.206;-6.106;2023-09-12T09:29:13;1.45;;;1.20;;
58697;SDS011;44475;53.206;-6.106;2023-09-12T09:31:45;1.88;;;1.30;;
58697;SDS011;44475;53.206;-6.106;2023-09-12T09:34:19;1.80;;;1.20;;
58697;SDS011;44475;53.206;-6.106;2023-09-12T09:36:47;1.50;;;1.20;;
58697;SDS011;44475;53.206;-6.106;2023-09-12T09:39:14;2.10;;;1.10;;
58697;SDS011;44475;53.206;-6.106;2023-09-12T09:41:42;1.52;;;1.10;;
58697;SDS011;44475;53.206;-6.106;2023-09-12T09:44:12;1.45;;;1.30;;
58697;SDS011;44475;53.206;-6.106;2023-09-12T09:46:39;2.15;;;1.20;;
58697;SDS011;44475;53.206;-6.106;2023-09-12T09:49:16;2.05;;;1.20;;
58697;SDS011;44475;53.206;-6.106;2023-09-12T09:51:44;2.85;;;1.30;;
58697;SDS011;44475;53.206;-6.106;2023-09-12T09:54:11;3.20;;;1.30;;
58697;SDS011;44475;53.206;-6.106;2023-09-12T09:56:44;2.20;;;1.23;;
58697;SDS011;44475;53.206;-6.106;2023-09-12T09:59:19;2.50;;;1.20;;
58697;SDS011;44475;53.206;-6.106;2023-09-12T10:01:51;2.30;;;1.20;;
58697;SDS011;44475;53.206;-6.106;2023-09-12T10:04:23;2.03;;;1.13;;
58697;SDS011;44475;53.206;-6.106;2023-09-12T10:06:54;1.77;;;1.20;;
58697;SDS011;44475;53.206;-6.106;2023-09-12T10:09:23;1.90;;;1.17;;
58697;SDS011;44475;53.206;-6.106;2023-09-12T10:11:52;1.95;;;1.05;;
58697;SDS011;44475;53.206;-6.106;2023-09-12T10:14:20;2.10;;;1.35;;
58697;SDS011;44475;53.206;-6.106;2023-09-12T10:16:48;2.55;;;1.30;;
58697;SDS011;44475;53.206;-6.106;2023-09-12T10:19:21;3.58;;;1.33;;
58697;SDS011;44475;53.206;-6.106;2023-09-12T10:24:25;1.67;;;1.20;;
58697;SDS011;44475;53.206;-6.106;2023-09-12T10:26:53;3.47;;;1.30;;
58697;SDS011;44475;53.206;-6.106;2023-09-12T10:29:22;2.03;;;1.23;;
58697;SDS011;44475;53.206;-6.106;2023-09-12T10:31:48;2.33;;;1.20;;
58697;SDS011;44475;53.206;-6.106;2023-09-12T10:34:15;1.35;;;1.17;;
58697;SDS011;44475;53.206;-6.106;2023-09-12T10:36:43;2.92;;;1.30;;
58697;SDS011;44475;53.206;-6.106;2023-09-12T10:39:12;2.75;;;1.40;;
58697;SDS011;44475;53.206;-6.106;2023-09-12T10:41:39;1.98;;;1.30;;
58697;SDS011;44475;53.206;-6.106;2023-09-12T10:44:08;1.20;;;1.08;;
58697;SDS011;44475;53.206;-6.106;2023-09-12T10:46:37;1.08;;;1.08;;
58697;SDS011;44475;53.206;-6.106;2023-09-12T10:49:08;1.80;;;1.20;;
58697;SDS011;44475;53.206;-6.106;2023-09-12T10:51:41;2.60;;;1.10;;
58697;SDS011;44475;53.206;-6.106;2023-09-12T10:54:13;1.33;;;1.23;;
58697;SDS011;44475;53.206;-6.106;2023-09-12T10:57:01;2.50;;;1.30;;
58697;SDS011;44475;53.206;-6.106;2023-09-12T10:59:28;1.65;;;1.10;;
58697;SDS011;44475;53.206;-6.106;2023-09-12T11:02:00;2.13;;;1.27;;
58697;SDS011;44475;53.206;-6.106;2023-09-12T11:04:55;2.28;;;1.25;;
58697;SDS011;44475;53.206;-6.106;2023-09-12T11:12:40;2.90;;;1.20;;
58697;SDS011;44475;53.206;-6.106;2023-09-12T11:15:07;2.03;;;1.30;;
58697;SDS011;44475;53.206;-6.106;2023-09-12T11:17:41;2.20;;;1.30;;
58697;SDS011;44475;53.206;-6.106;2023-09-12T11:20:12;2.97;;;1.20;;
58697;SDS011;44475;53.206;-6.106;2023-09-12T11:22:46;2.45;;;1.38;;
58697;SDS011;44475;53.206;-6.106;2023-09-12T11:30:19;1.35;;;1.20;;
58697;SDS011;44475;53.206;-6.106;2023-09-12T11:32:47;1.73;;;1.20;;
58697;SDS011;44475;53.206;-6.106;2023-09-12T11:35:16;1.67;;;1.20;;
58697;SDS011;44475;53.206;-6.106;2023-09-12T11:37:54;1.75;;;1.20;;
58697;SDS011;44475;53.206;-6.106;2023-09-12T11:40:23;1.80;;;1.30;;
58697;SDS011;44475;53.206;-6.106;2023-09-12T11:42:51;2.67;;;1.30;;
58697;SDS011;44475;53.206;-6.106;2023-09-12T11:45:18;3.05;;;1.27;;
58697;SDS011;44475;53.206;-6.106;2023-09-12T11:47:46;2.10;;;1.30;;
58697;SDS011;44475;53.206;-6.106;2023-09-12T11:50:32;2.67;;;1.33;;
58697;SDS011;44475;53.206;-6.106;2023-09-12T11:53:05;4.60;;;1.60;;
58697;SDS011;44475;53.206;-6.106;2023-09-12T11:55:46;3.53;;;1.30;;
58697;SDS011;44475;53.206;-6.106;2023-09-12T11:58:16;1.55;;;1.20;;
58697;SDS011;44475;53.206;-6.106;2023-09-12T12:00:51;3.85;;;1.50;;
58697;SDS011;44475;53.206;-6.106;2023-09-12T12:03:22;2.38;;;1.48;;
58697;SDS011;44475;53.206;-6.106;2023-09-12T12:05:50;1.67;;;1.30;;
58697;SDS011;44475;53.206;-6.106;2023-09-12T12:08:18;2.00;;;1.30;;
58697;SDS011;44475;53.206;-6.106;2023-09-12T12:10:52;2.70;;;1.38;;
58697;SDS011;44475;53.206;-6.106;2023-09-12T12:13:19;2.67;;;1.33;;
58697;SDS011;44475;53.206;-6.106;2023-09-12T12:15:46;1.70;;;1.33;;
58697;SDS011;44475;53.206;-6.106;2023-09-12T12:18:13;7.07;;;1.60;;
58697;SDS011;44475;53.206;-6.106;2023-09-12T12:20:39;3.55;;;1.50;;
58697;SDS011;44475;53.206;-6.106;2023-09-12T12:23:06;2.38;;;1.45;;
58697;SDS011;44475;53.206;-6.106;2023-09-12T12:25:33;2.42;;;1.30;;
58697;SDS011;44475;53.206;-6.106;2023-09-12T12:28:00;2.22;;;1.33;;
58697;SDS011;44475;53.206;-6.106;2023-09-12T12:30:30;3.95;;;1.40;;
58697;SDS011;44475;53.206;-6.106;2023-09-12T12:33:00;2.05;;;1.40;;
58697;SDS011;44475;53.206;-6.106;2023-09-12T12:35:28;2.25;;;1.40;;
58697;SDS011;44475;53.206;-6.106;2023-09-12T12:37:54;2.53;;;1.23;;
58697;SDS011;44475;53.206;-6.106;2023-09-12T12:40:22;2.83;;;1.42;;
58697;SDS011;44475;53.206;-6.106;2023-09-12T12:42:48;2.08;;;1.38;;
58697;SDS011;44475;53.206;-6.106;2023-09-12T12:45:15;2.50;;;1.40;;
58697;SDS011;44475;53.206;-6.106;2023-09-12T12:47:46;2.17;;;1.33;;
58697;SDS011;44475;53.206;-6.106;2023-09-12T12:50:16;2.33;;;1.38;;
58697;SDS011;44475;53.206;-6.106;2023-09-12T12:52:46;2.75;;;1.40;;
58697;SDS011;44475;53.206;-6.106;2023-09-12T12:55:13;3.90;;;1.40;;
58697;SDS011;44475;53.206;-6.106;2023-09-12T12:57:42;2.55;;;1.30;;
58697;SDS011;44475;53.206;-6.106;2023-09-12T13:00:10;2.75;;;1.50;;
58697;SDS011;44475;53.206;-6.106;2023-09-12T13:02:40;2.25;;;1.30;;
58697;SDS011;44475;53.206;-6.106;2023-09-12T13:05:24;2.22;;;1.48;;
58697;SDS011;44475;53.206;-6.106;2023-09-12T13:07:52;3.17;;;1.48;;
58697;SDS011;44475;53.206;-6.106;2023-09-12T13:10:19;1.50;;;1.30;;
58697;SDS011;44475;53.206;-6.106;2023-09-12T13:12:46;2.25;;;1.60;;
58697;SDS011;44475;53.206;-6.106;2023-09-12T13:15:13;1.42;;;1.20;;
58697;SDS011;44475;53.206;-6.106;2023-09-12T13:17:40;1.70;;;1.40;;
58697;SDS011;44475;53.206;-6.106;2023-09-12T13:20:07;3.17;;;1.50;;
58697;SDS011;44475;53.206;-6.106;2023-09-12T13:22:34;2.30;;;1.40;;
58697;SDS011;44475;53.206;-6.106;2023-09-12T13:25:01;2.45;;;1.38;;
58697;SDS011;44475;53.206;-6.106;2023-09-12T13:27:28;1.88;;;1.20;;
58697;SDS011;44475;53.206;-6.106;2023-09-12T13:29:54;2.25;;;1.40;;
58697;SDS011;44475;53.206;-6.106;2023-09-12T13:32:21;2.10;;;1.35;;
58697;SDS011;44475;53.206;-6.106;2023-09-12T13:34:47;1.85;;;1.23;;
58697;SDS011;44475;53.206;-6.106;2023-09-12T13:37:15;2.38;;;1.40;;
58697;SDS011;44475;53.206;-6.106;2023-09-12T13:39:42;1.95;;;1.38;;
58697;SDS011;44475;53.206;-6.106;2023-09-12T13:42:14;2.23;;;1.40;;
58697;SDS011;44475;53.206;-6.106;2023-09-12T13:44:44;1.40;;;1.20;;
58697;SDS011;44475;53.206;-6.106;2023-09-12T13:47:12;3.83;;;1.48;;
58697;SDS011;44475;53.206;-6.106;2023-09-12T13:49:38;1.70;;;1.38;;
58697;SDS011;44475;53.206;-6.106;2023-09-12T13:52:04;4.78;;;1.48;;
58697;SDS011;44475;53.206;-6.106;2023-09-12T13:54:31;4.32;;;1.50;;
58697;SDS011;44475;53.206;-6.106;2023-09-12T13:56:57;1.65;;;1.30;;
58697;SDS011;44475;53.206;-6.106;2023-09-12T13:59:23;2.75;;;1.40;;
58697;SDS011;44475;53.206;-6.106;2023-09-12T14:01:50;2.53;;;1.38;;
58697;SDS011;44475;53.206;-6.106;2023-09-12T14:04:16;2.90;;;1.65;;
58697;SDS011;44475;53.206;-6.106;2023-09-12T14:06:42;2.75;;;1.52;;
58697;SDS011;44475;53.206;-6.106;2023-09-12T14:09:09;4.70;;;1.48;;
58697;SDS011;44475;53.206;-6.106;2023-09-12T14:11:35;2.42;;;1.40;;
58697;SDS011;44475;53.206;-6.106;2023-09-12T14:14:02;3.85;;;1.40;;
58697;SDS011;44475;53.206;-6.106;2023-09-12T14:16:29;2.45;;;1.42;;
58697;SDS011;44475;53.206;-6.106;2023-09-12T14:18:55;1.58;;;1.35;;
58697;SDS011;44475;53.206;-6.106;2023-09-12T14:21:21;2.22;;;1.40;;
58697;SDS011;44475;53.206;-6.106;2023-09-12T14:23:48;2.45;;;1.50;;
58697;SDS011;44475;53.206;-6.106;2023-09-12T14:26:14;2.33;;;1.50;;
58697;SDS011;44475;53.206;-6.106;2023-09-12T14:28:40;2.25;;;1.50;;
58697;SDS011;44475;53.206;-6.106;2023-09-12T14:31:07;3.40;;;1.52;;
58697;SDS011;44475;53.206;-6.106;2023-09-12T14:33:39;5.18;;;1.45;;
58697;SDS011;44475;53.206;-6.106;2023-09-12T14:36:05;5.05;;;1.60;;
58697;SDS011;44475;53.206;-6.106;2023-09-12T14:38:35;2.03;;;1.50;;
58697;SDS011;44475;53.206;-6.106;2023-09-12T14:41:01;1.98;;;1.40;;
58697;SDS011;44475;53.206;-6.106;2023-09-12T14:43:28;2.33;;;1.50;;
58697;SDS011;44475;53.206;-6.106;2023-09-12T14:45:54;2.10;;;1.40;;
58697;SDS011;44475;53.206;-6.106;2023-09-12T14:48:20;5.18;;;1.60;;
58697;SDS011;44475;53.206;-6.106;2023-09-12T14:50:47;2.22;;;1.45;;
58697;SDS011;44475;53.206;-6.106;2023-09-12T14:53:16;2.92;;;1.40;;